Latest Weather Observations for Ferny Creek

IDV60801

Issued at 5:31 pm EST Sunday 30 August 2015 (issued every 30 minutes, with the page automatically refreshed every 10 minutes)

About weather observations | Map of weather stations | Latest weather observations for VIC | Other Formats
Station Details ID: 086266 Name: FERNY CREEK Lat: -37.87 Lon: 145.35 Height: 512.9 m
Data from the previous 72 hours. | See also: Recent months at Ferny Creek
Date/Time
EST
Temp
°C
App
Temp
°C
Dew
Point
Rel
Hum
%
Delta-T
°C
Wind Press
QNH
hPa
Press
MSL
hPa
Rain
since 9 am
mm
Dir
 
Spd
km/h
Gust
km/h
Spd
kts
Gust
kts
30/05:30pm 6.2 4.4 3.5 83 1.2 SSW 2 6 1 3 1021.9 1022.6 0.0
30/05:00pm 6.8 4.3 3.9 82 1.3 SW 6 13 3 7 1022.0 1022.7 0.0
30/04:30pm 7.5 5.1 4.5 81 1.4 SW 6 11 3 6 1021.8 1022.5 0.0
30/04:00pm 7.5 5.6 5.0 84 1.1 WSW 4 7 2 4 1021.9 1022.6 0.0
30/03:30pm 7.9 5.6 4.8 81 1.4 SW 6 11 3 6 1021.9 1022.6 0.0
30/03:00pm 7.9 6.0 4.7 80 1.4 SW 4 9 2 5 1022.1 1022.8 0.0
30/02:30pm 8.1 5.8 4.7 79 1.5 WSW 6 11 3 6 1022.2 1022.9 0.0
30/02:00pm 8.4 6.1 4.6 77 1.7 WSW 6 15 3 8 1022.2 1022.9 0.0
30/01:30pm 9.1 7.1 4.3 72 2.2 S 4 9 2 5 1022.3 1023.0 0.0
30/01:00pm 8.7 6.4 4.9 77 1.7 WSW 6 9 3 5 1022.6 1023.3 0.0
30/12:30pm 8.3 6.3 4.3 76 1.8 SSE 4 9 2 5 1022.8 1023.6 0.0
30/12:00pm 8.5 7.1 3.4 70 2.2 CALM 0 4 0 2 1023.3 1024.0 0.0
30/11:30am 8.1 6.0 4.1 76 1.8 S 4 9 2 5 1023.7 1024.4 0.0
30/11:00am 8.3 6.5 5.6 83 1.2 SSW 4 7 2 4 1023.9 1024.6 0.0
30/10:30am 7.3 5.3 4.4 82 1.3 WSW 4 7 2 4 1023.8 1024.5 0.0
30/10:00am 6.8 4.8 4.5 85 1.0 WSW 4 7 2 4 1024.0 1024.7 0.0
30/09:30am 6.2 3.8 4.4 88 0.8 SW 6 11 3 6 1024.2 1024.9 0.0
30/09:00am 6.1 3.8 4.9 92 0.5 SW 6 13 3 7 1024.1 1024.8 7.0
30/08:30am 5.5 3.3 5.1 97 0.2 SW 6 9 3 5 1024.1 1024.8 7.0
30/08:00am 4.9 2.9 4.5 97 0.2 SW 4 7 2 4 1024.0 1024.7 7.0
30/07:30am 4.6 2.6 4.3 98 0.1 WSW 4 6 2 3 1023.6 1024.3 7.0
30/07:00am 4.5 2.5 4.2 98 0.1 WSW 4 6 2 3 1023.3 1024.0 7.0
30/06:30am 4.7 2.7 4.4 98 0.1 SW 4 6 2 3 1023.1 1023.8 7.0
30/06:00am 4.8 3.2 4.5 98 0.1 SW 2 7 1 4 1022.9 1023.7 7.0
30/05:30am 5.0 2.7 4.7 98 0.1 SSW 6 9 3 5 1022.8 1023.6 7.0
30/05:00am 5.0 2.7 4.7 98 0.1 WSW 6 13 3 7 1022.7 1023.5 6.8
30/04:30am 5.3 3.5 5.2 99 0.0 SW 4 9 2 5 1022.6 1023.3 6.8
30/04:00am 5.4 3.6 5.3 99 0.0 SW 4 11 2 6 1022.6 1023.3 6.8
30/03:30am 5.4 3.2 5.1 98 0.1 SW 6 13 3 7 1022.7 1023.5 6.8
30/03:00am 5.5 4.1 5.4 99 0.0 S 2 7 1 4 1022.7 1023.5 6.6
30/02:30am 5.5 3.7 5.4 99 0.0 S 4 9 2 5 1022.9 1023.7 6.6
30/02:00am 5.4 3.6 5.3 99 0.0 SSW 4 11 2 6 1022.9 1023.7 6.6
30/01:30am 5.3 3.0 5.0 98 0.1 SW 6 9 3 5 1023.4 1024.1 6.4
30/01:00am 5.3 3.0 5.0 98 0.1 SW 6 13 3 7 1023.6 1024.3 6.4
30/12:30am 5.3 2.8 5.0 98 0.1 SW 7 17 4 9 1023.8 1024.5 6.4
30/12:00am 5.3 3.0 5.0 98 0.1 WSW 6 11 3 6 1023.9 1024.6 6.4
 
Date/Time
EST
Temp
°C
App
Temp
°C
Dew
Point
Rel
Hum
%
Delta-T
°C
Wind Press
QNH
hPa
Press
MSL
hPa
Rain
since 9 am
mm
Dir
 
Spd
km/h
Gust
km/h
Spd
kts
Gust
kts
29/11:30pm 5.3 3.0 5.0 98 0.1 SSW 6 15 3 8 1024.0 1024.7 6.4
29/11:00pm 5.4 3.2 5.1 98 0.1 WSW 6 15 3 8 1024.3 1025.0 6.0
29/10:30pm 5.3 2.8 5.0 98 0.1 S 7 15 4 8 1024.4 1025.2 6.0
29/10:00pm 5.6 3.4 5.3 98 0.1 SW 6 11 3 6 1024.4 1025.2 5.6
29/09:30pm 5.7 3.9 5.4 98 0.1 SW 4 15 2 8 1024.4 1025.2 5.6
29/09:00pm 5.6 3.4 5.3 98 0.1 SW 6 13 3 7 1024.3 1025.0 5.2
29/08:30pm 5.6 3.2 5.3 98 0.1 SW 7 15 4 8 1024.4 1025.2 5.0
29/08:00pm 5.7 3.5 5.4 98 0.1 SW 6 13 3 7 1024.3 1025.0 5.0
29/07:30pm 5.9 3.8 5.6 98 0.1 SW 6 11 3 6 1024.3 1025.0 4.8
29/07:00pm 5.8 3.5 5.5 98 0.1 SW 7 19 4 10 1024.2 1024.9 4.6
29/06:30pm 5.8 3.5 5.5 98 0.1 SW 7 19 4 10 1024.0 1024.7 4.4
29/06:00pm 5.9 3.2 5.6 98 0.1 WSW 9 17 5 9 1023.8 1024.5 4.2
29/05:30pm 6.0 3.7 5.7 98 0.1 WSW 7 20 4 11 1023.7 1024.4 4.2
29/05:00pm 6.1 3.8 5.8 98 0.1 WSW 7 17 4 9 1023.6 1024.3 4.0
29/04:30pm 6.2 3.9 5.9 98 0.1 WSW 7 15 4 8 1023.5 1024.2 4.0
29/04:00pm 6.1 3.4 5.7 97 0.2 SW 9 32 5 17 1023.5 1024.2 3.8
29/03:30pm 6.3 3.3 5.9 97 0.2 WSW 11 24 6 13 1023.4 1024.1 2.6
29/03:00pm 6.2 3.9 5.8 97 0.2 WSW 7 19 4 10 1023.4 1024.1 1.8
29/02:30pm 6.0 3.9 5.6 97 0.2 SW 6 17 3 9 1023.5 1024.2 1.4
29/02:00pm 6.0 3.3 5.4 96 0.3 WSW 9 26 5 14 1023.6 1024.3 1.0
29/01:30pm 6.0 3.8 5.3 95 0.3 WSW 6 13 3 7 1023.8 1024.5 1.0
29/01:00pm 6.1 3.3 5.1 93 0.4 WSW 9 24 5 13 1024.1 1024.8 0.6
29/12:30pm 6.1 3.3 5.1 93 0.5 WSW 9 20 5 11 1024.4 1025.2 0.6
29/12:00pm 5.6 2.7 4.7 94 0.4 WSW 9 20 5 11 1024.6 1025.4 0.6
29/11:30am 5.3 2.4 4.4 94 0.4 WSW 9 20 5 11 1024.9 1025.7 0.2
29/11:00am 5.8 3.3 4.6 92 0.5 WSW 7 20 4 11 1024.7 1025.5 0.2
29/10:30am 5.4 2.8 3.1 85 1.0 WSW 6 15 3 8 1024.8 1025.6 0.0
29/10:00am 5.1 2.2 2.8 85 1.0 WSW 7 19 4 10 1025.0 1025.8 0.0
29/09:30am 5.0 2.3 2.7 85 1.0 WSW 6 17 3 9 1025.0 1025.8 0.0
29/09:00am 4.2 1.4 1.9 85 0.9 SW 6 15 3 8 1025.3 1026.0 2.4
29/08:30am 4.0 0.9 1.4 83 1.0 W 7 17 4 9 1025.2 1025.9 2.4
29/08:00am 4.5 1.6 1.7 82 1.1 W 6 13 3 7 1024.9 1025.7 2.4
29/07:30am 3.2 0.1 0.4 82 1.1 WSW 6 11 3 6 1024.9 1025.7 2.4
29/07:00am 2.3 -0.4 0.0 85 0.9 W 4 7 2 4 1024.6 1025.4 2.4
29/06:30am 2.5 -0.2 0.4 86 0.8 WSW 4 7 2 4 1024.4 1025.2 2.4
29/06:00am 2.2 -0.5 0.4 88 0.7 SW 4 9 2 5 1024.3 1025.0 2.4
29/05:30am 2.1 -0.2 0.3 88 0.7 SSW 2 7 1 4 1024.3 1025.0 2.4
29/05:00am 2.1 -0.6 0.5 89 0.6 S 4 13 2 7 1024.2 1024.9 2.4
29/04:30am 2.2 -0.1 0.7 90 0.6 S 2 6 1 3 1024.1 1024.8 2.4
29/04:00am 2.8 0.3 1.8 93 0.4 ESE 4 11 2 6 1024.1 1024.8 2.4
29/03:30am 3.3 1.4 2.7 96 0.2 E 2 4 1 2 1024.1 1024.8 2.4
29/03:00am 3.3 1.0 2.7 96 0.2 ESE 4 9 2 5 1024.3 1025.0 2.4
29/02:30am 3.2 0.4 2.3 94 0.4 SW 6 15 3 8 1024.5 1025.3 2.2
29/02:00am 3.3 0.9 2.3 93 0.4 SE 4 7 2 4 1024.6 1025.4 1.8
29/01:30am 3.2 1.5 1.9 91 0.5 CALM 0 4 0 2 1024.7 1025.5 1.8
29/01:00am 3.6 1.1 1.5 86 0.8 SW 4 9 2 5 1024.9 1025.7 1.8
29/12:30am 3.1 0.4 0.0 80 1.2 W 4 7 2 4 1024.6 1025.4 1.8
29/12:00am 3.3 0.6 0.2 80 1.2 W 4 9 2 5 1024.7 1025.5 1.8
 
Date/Time
EST
Temp
°C
App
Temp
°C
Dew
Point
Rel
Hum
%
Delta-T
°C
Wind Press
QNH
hPa
Press
MSL
hPa
Rain
since 9 am
mm
Dir
 
Spd
km/h
Gust
km/h
Spd
kts
Gust
kts
28/11:30pm 2.9 0.3 0.8 86 0.8 WNW 4 13 2 7 1024.7 1025.5 1.8
28/11:00pm 2.8 0.2 0.9 87 0.7 WSW 4 7 2 4 1024.9 1025.7 1.8
28/10:30pm 2.6 0.4 1.0 89 0.6 WSW 2 6 1 3 1025.0 1025.8 1.8
28/10:00pm 2.8 0.2 1.0 88 0.7 WSW 4 11 2 6 1025.2 1025.9 1.8
28/09:30pm 3.3 0.4 1.5 88 0.7 WSW 6 13 3 7 1025.2 1025.9 1.8
28/09:00pm 4.0 1.3 2.8 92 0.5 WSW 6 11 3 6 1025.0 1025.8 1.8
28/08:30pm 4.5 2.3 3.3 92 0.5 WSW 4 9 2 5 1024.8 1025.6 1.8
28/08:00pm 4.4 2.2 3.5 94 0.4 SW 4 7 2 4 1024.7 1025.5 1.8
28/07:30pm 4.1 1.9 3.2 94 0.4 WSW 4 9 2 5 1024.4 1025.2 1.8
28/07:00pm 4.3 2.1 3.1 92 0.5 WSW 4 11 2 6 1024.4 1025.2 1.8
28/06:30pm 4.6 2.0 3.4 92 0.5 SW 6 9 3 5 1024.3 1025.0 1.8
28/06:00pm 5.2 3.1 3.7 90 0.6 WSW 4 9 2 5 1024.0 1024.7 1.8
28/05:30pm 6.3 4.4 4.9 91 0.6 SW 4 7 2 4 1023.9 1024.6 1.8
28/05:00pm 6.8 5.4 5.4 91 0.6 SSE 2 7 1 4 1023.7 1024.4 1.8
28/04:30pm 7.2 6.3 6.0 92 0.6 CALM 0 9 0 5 1023.6 1024.3 1.8
28/04:00pm 7.3 5.6 5.8 90 0.7 SSE 4 13 2 7 1023.5 1024.2 1.6
28/03:30pm 7.4 5.8 6.3 93 0.5 SSW 4 13 2 7 1023.5 1024.2 1.6
28/03:00pm 7.7 6.2 6.6 93 0.5 SW 4 9 2 5 1023.6 1024.3 1.6
28/02:30pm 7.8 5.6 6.3 90 0.7 SW 7 13 4 7 1023.6 1024.3 0.8
28/02:00pm 7.9 6.3 6.4 90 0.7 WSW 4 11 2 6 1023.6 1024.3 0.6
28/01:30pm 8.0 6.6 5.6 85 1.1 SW 2 6 1 3 1023.7 1024.4 0.6
28/01:00pm 8.3 6.6 5.8 84 1.2 S 4 7 2 4 1023.9 1024.6 0.6
28/12:30pm 8.0 6.1 6.9 93 0.5 SW 6 13 3 7 1024.3 1025.0 0.6
28/12:00pm 7.3 5.8 6.9 97 0.2 SW 4 7 2 4 1024.7 1025.5 0.6
28/11:30am 6.7 4.7 6.3 97 0.2 SSW 6 13 3 7 1024.9 1025.7 0.4
28/11:00am 6.2 3.9 5.8 97 0.2 SW 7 24 4 13 1025.0 1025.8 0.4
28/10:30am 6.3 4.2 6.0 98 0.1 SW 6 13 3 7 1024.8 1025.6 0.4
28/10:00am 6.4 4.7 6.1 98 0.1 SW 4 9 2 5 1024.7 1025.5 0.4
28/09:30am 5.9 3.8 5.6 98 0.1 SW 6 11 3 6 1024.6 1025.4 0.2
28/09:00am 6.2 4.5 5.9 98 0.1 SW 4 13 2 7 1024.6 1025.4 51.8
28/08:30am 5.8 4.0 5.5 98 0.1 WSW 4 11 2 6 1024.4 1025.2 51.8
28/08:00am 5.7 3.5 5.4 98 0.1 SSW 6 13 3 7 1024.1 1024.8 51.6
28/07:30am 5.7 3.9 5.4 98 0.1 SSW 4 13 2 7 1023.9 1024.6 51.6
28/07:00am 5.5 3.3 5.2 98 0.1 SSW 6 13 3 7 1023.7 1024.4 51.6
28/06:30am 5.7 3.9 5.4 98 0.1 SSW 4 17 2 9 1023.4 1024.1 51.6
28/06:00am 5.7 3.5 5.4 98 0.1 SSW 6 13 3 7 1023.3 1024.0 51.6
28/05:30am 5.7 3.9 5.4 98 0.1 SW 4 11 2 6 1022.9 1023.7 50.8
28/05:00am 5.5 4.0 5.2 98 0.1 SE 2 6 1 3 1022.7 1023.5 50.4
28/04:30am 5.2 3.7 4.8 97 0.2 SW 2 6 1 3 1022.6 1023.3 50.4
28/04:00am 5.2 3.3 4.9 98 0.1 W 4 7 2 4 1022.5 1023.2 50.4
28/03:30am 5.1 3.2 4.8 98 0.1 S 4 13 2 7 1022.4 1023.1 50.4
28/03:00am 5.2 2.9 4.9 98 0.1 SSW 6 17 3 9 1022.6 1023.3 50.4
28/02:30am 5.4 3.9 5.1 98 0.1 S 2 7 1 4 1022.7 1023.5 50.4
28/02:00am 5.4 3.5 5.1 98 0.1 S 4 9 2 5 1022.7 1023.5 50.4
28/01:30am 5.6 3.4 5.5 99 0.0 SSE 6 11 3 6 1022.8 1023.6 50.4
28/01:00am 6.0 3.9 5.9 99 0.0 SSW 6 13 3 7 1022.6 1023.3 50.4
28/12:30am 6.1 4.4 6.0 99 0.0 SSW 4 13 2 7 1022.5 1023.2 50.4
28/12:00am 6.5 4.5 6.4 99 0.0 SSE 6 20 3 11 1022.4 1023.1 50.4
 
Date/Time
EST
Temp
°C
App
Temp
°C
Dew
Point
Rel
Hum
%
Delta-T
°C
Wind Press
QNH
hPa
Press
MSL
hPa
Rain
since 9 am
mm
Dir
 
Spd
km/h
Gust
km/h
Spd
kts
Gust
kts
27/11:30pm 6.9 4.8 6.8 99 0.0 SSE 7 22 4 12 1022.3 1023.0 50.4
27/11:00pm 7.1 5.1 7.0 99 0.0 SE 7 24 4 13 1022.1 1022.8 50.4
27/10:30pm 7.3 4.9 7.2 99 0.0 SSE 9 24 5 13 1021.9 1022.6 50.4
27/10:00pm 7.5 5.2 7.4 99 0.0 SE 9 24 5 13 1021.8 1022.5 50.4
27/09:30pm 7.8 5.9 7.7 99 0.0 SSE 7 22 4 12 1021.6 1022.3 50.4
27/09:00pm 7.8 5.6 7.7 99 0.0 ESE 9 17 5 9 1021.5 1022.2 50.2
27/08:30pm 7.9 5.3 7.8 99 0.0 ESE 11 20 6 11 1021.2 1021.9 49.4
27/08:00pm 7.9 5.7 7.8 99 0.0 ESE 9 19 5 10 1021.0 1021.6 49.4
27/07:30pm 8.1 5.9 8.0 99 0.0 SE 9 24 5 13 1020.6 1021.3 49.4
27/07:00pm 8.2 6.1 8.1 99 0.0 ESE 9 22 5 12 1020.3 1021.0 49.2
27/06:30pm 8.3 6.7 8.2 99 0.0 SE 6 17 3 9 1019.9 1020.6 48.6
27/06:00pm 8.3 6.5 8.0 98 0.1 E 7 19 4 10 1019.5 1020.2 46.8

Other Formats:

Comma delimited format used in spreadsheet applications
http://www.bom.gov.au/fwo/IDV60801/IDV60801.94872.axf

JavaScript Object Notation format (JSON) in row-major order
http://www.bom.gov.au/fwo/IDV60801/IDV60801.94872.json